sensor_id;sensor_type;location;lat;lon;timestamp;pressure;altitude;pressure_sealevel;temperature;humidity
62508;BME280;48556;51.972;4.624;2023-02-17T00:01:19;101911.75;;;11.34;100.00
62508;BME280;48556;51.972;4.624;2023-02-17T00:03:45;101909.97;;;11.25;100.00
62508;BME280;48556;51.972;4.624;2023-02-17T00:06:14;101908.25;;;11.37;100.00
62508;BME280;48556;51.972;4.624;2023-02-17T00:08:39;101900.34;;;11.27;100.00
62508;BME280;48556;51.972;4.624;2023-02-17T00:11:06;101902.09;;;11.30;100.00
62508;BME280;48556;51.972;4.624;2023-02-17T00:13:32;101909.06;;;11.16;100.00
62508;BME280;48556;51.972;4.624;2023-02-17T00:15:58;101897.53;;;10.80;100.00
62508;BME280;48556;51.972;4.624;2023-02-17T00:18:24;101901.94;;;10.82;100.00
62508;BME280;48556;51.972;4.624;2023-02-17T00:20:50;101897.72;;;11.32;100.00
62508;BME280;48556;51.972;4.624;2023-02-17T00:23:16;101910.81;;;11.10;100.00
62508;BME280;48556;51.972;4.624;2023-02-17T00:25:42;101909.78;;;10.73;100.00
62508;BME280;48556;51.972;4.624;2023-02-17T00:28:08;101916.88;;;10.91;100.00
62508;BME280;48556;51.972;4.624;2023-02-17T00:30:33;101915.88;;;10.64;100.00
62508;BME280;48556;51.972;4.624;2023-02-17T00:32:59;101915.09;;;10.77;100.00
62508;BME280;48556;51.972;4.624;2023-02-17T00:35:24;101909.06;;;11.17;100.00
62508;BME280;48556;51.972;4.624;2023-02-17T00:37:52;101892.38;;;11.06;100.00
62508;BME280;48556;51.972;4.624;2023-02-17T00:40:18;101889.66;;;10.83;100.00
62508;BME280;48556;51.972;4.624;2023-02-17T00:42:43;101890.69;;;11.23;100.00
62508;BME280;48556;51.972;4.624;2023-02-17T00:45:09;101892.31;;;10.86;100.00
62508;BME280;48556;51.972;4.624;2023-02-17T00:47:35;101904.53;;;10.71;100.00
62508;BME280;48556;51.972;4.624;2023-02-17T00:50:00;101892.28;;;10.78;100.00
62508;BME280;48556;51.972;4.624;2023-02-17T00:52:26;101877.41;;;10.83;100.00
62508;BME280;48556;51.972;4.624;2023-02-17T00:54:51;101890.50;;;10.65;100.00
62508;BME280;48556;51.972;4.624;2023-02-17T00:57:17;101894.78;;;10.47;100.00
62508;BME280;48556;51.972;4.624;2023-02-17T00:59:43;101898.41;;;10.75;100.00
62508;BME280;48556;51.972;4.624;2023-02-17T01:02:08;101893.94;;;10.59;100.00
62508;BME280;48556;51.972;4.624;2023-02-17T01:04:34;101888.59;;;10.37;100.00
62508;BME280;48556;51.972;4.624;2023-02-17T01:06:59;101889.56;;;10.58;100.00
62508;BME280;48556;51.972;4.624;2023-02-17T01:09:25;101888.75;;;10.70;100.00
62508;BME280;48556;51.972;4.624;2023-02-17T01:11:51;101886.16;;;10.77;100.00
62508;BME280;48556;51.972;4.624;2023-02-17T01:14:17;101896.56;;;10.59;100.00
62508;BME280;48556;51.972;4.624;2023-02-17T01:16:46;101917.34;;;10.17;100.00
62508;BME280;48556;51.972;4.624;2023-02-17T01:19:16;101912.19;;;10.33;100.00
62508;BME280;48556;51.972;4.624;2023-02-17T01:21:44;101915.88;;;10.58;100.00
62508;BME280;48556;51.972;4.624;2023-02-17T01:24:11;101913.28;;;10.67;100.00
62508;BME280;48556;51.972;4.624;2023-02-17T01:26:39;101907.16;;;10.67;100.00
62508;BME280;48556;51.972;4.624;2023-02-17T01:29:06;101909.78;;;10.71;100.00
62508;BME280;48556;51.972;4.624;2023-02-17T01:31:32;101898.44;;;10.83;100.00
62508;BME280;48556;51.972;4.624;2023-02-17T01:34:00;101894.06;;;10.84;100.00
62508;BME280;48556;51.972;4.624;2023-02-17T01:36:27;101884.38;;;10.72;100.00
62508;BME280;48556;51.972;4.624;2023-02-17T01:38:53;101873.06;;;10.96;100.00
62508;BME280;48556;51.972;4.624;2023-02-17T01:41:21;101866.88;;;10.91;100.00
62508;BME280;48556;51.972;4.624;2023-02-17T01:46:37;101880.00;;;10.78;100.00
62508;BME280;48556;51.972;4.624;2023-02-17T01:49:12;101877.41;;;10.80;100.00
62508;BME280;48556;51.972;4.624;2023-02-17T01:51:40;101863.28;;;10.64;100.00
62508;BME280;48556;51.972;4.624;2023-02-17T01:54:27;101869.38;;;10.51;100.00
62508;BME280;48556;51.972;4.624;2023-02-17T01:56:56;101876.53;;;10.92;100.00
62508;BME280;48556;51.972;4.624;2023-02-17T01:59:24;101879.13;;;10.83;100.00
62508;BME280;48556;51.972;4.624;2023-02-17T02:01:54;101867.72;;;10.74;100.00
62508;BME280;48556;51.972;4.624;2023-02-17T02:04:28;101871.22;;;10.76;100.00
62508;BME280;48556;51.972;4.624;2023-02-17T02:06:57;101867.66;;;10.59;100.00
62508;BME280;48556;51.972;4.624;2023-02-17T02:09:30;101847.44;;;10.41;100.00
62508;BME280;48556;51.972;4.624;2023-02-17T02:11:57;101845.56;;;10.24;100.00
62508;BME280;48556;51.972;4.624;2023-02-17T02:14:25;101839.56;;;10.52;100.00
62508;BME280;48556;51.972;4.624;2023-02-17T02:17:20;101842.09;;;10.33;100.00
62508;BME280;48556;51.972;4.624;2023-02-17T02:33:17;101831.72;;;10.55;100.00
62508;BME280;48556;51.972;4.624;2023-02-17T02:38:40;101821.22;;;10.64;100.00
62508;BME280;48556;51.972;4.624;2023-02-17T02:41:15;101825.66;;;10.74;100.00
62508;BME280;48556;51.972;4.624;2023-02-17T02:43:44;101826.47;;;10.67;100.00
62508;BME280;48556;51.972;4.624;2023-02-17T02:46:09;101822.09;;;10.66;100.00
62508;BME280;48556;51.972;4.624;2023-02-17T02:48:36;101815.09;;;10.67;100.00
62508;BME280;48556;51.972;4.624;2023-02-17T03:08:11;101802.72;;;10.42;100.00
62508;BME280;48556;51.972;4.624;2023-02-17T03:10:50;101788.78;;;10.62;100.00
62508;BME280;48556;51.972;4.624;2023-02-17T03:13:18;101763.31;;;10.52;100.00
62508;BME280;48556;51.972;4.624;2023-02-17T03:15:45;101782.63;;;10.58;100.00
62508;BME280;48556;51.972;4.624;2023-02-17T03:18:11;101773.91;;;10.80;100.00
62508;BME280;48556;51.972;4.624;2023-02-17T03:20:45;101769.47;;;10.63;100.00
62508;BME280;48556;51.972;4.624;2023-02-17T03:23:13;101764.25;;;10.66;100.00
62508;BME280;48556;51.972;4.624;2023-02-17T03:25:39;101759.81;;;10.57;100.00
62508;BME280;48556;51.972;4.624;2023-02-17T03:28:04;101759.81;;;10.47;100.00
62508;BME280;48556;51.972;4.624;2023-02-17T03:30:30;101766.78;;;10.43;100.00
62508;BME280;48556;51.972;4.624;2023-02-17T03:32:56;101761.63;;;10.71;100.00
62508;BME280;48556;51.972;4.624;2023-02-17T03:35:24;101758.97;;;10.65;100.00
62508;BME280;48556;51.972;4.624;2023-02-17T03:37:50;101756.34;;;10.77;100.00
62508;BME280;48556;51.972;4.624;2023-02-17T03:40:15;101760.78;;;10.89;100.00
62508;BME280;48556;51.972;4.624;2023-02-17T03:42:41;101765.19;;;11.05;100.00
62508;BME280;48556;51.972;4.624;2023-02-17T03:45:07;101780.06;;;10.86;100.00
62508;BME280;48556;51.972;4.624;2023-02-17T03:47:32;101783.59;;;10.90;100.00
62508;BME280;48556;51.972;4.624;2023-02-17T03:49:58;101775.72;;;11.21;100.00
62508;BME280;48556;51.972;4.624;2023-02-17T03:52:23;101773.00;;;10.73;100.00
62508;BME280;48556;51.972;4.624;2023-02-17T03:54:49;101773.09;;;11.05;100.00
62508;BME280;48556;51.972;4.624;2023-02-17T03:57:16;101796.75;;;10.98;100.00
62508;BME280;48556;51.972;4.624;2023-02-17T03:59:42;101780.97;;;11.08;100.00
62508;BME280;48556;51.972;4.624;2023-02-17T04:02:09;101773.94;;;11.38;100.00
62508;BME280;48556;51.972;4.624;2023-02-17T04:04:35;101778.38;;;11.18;100.00
62508;BME280;48556;51.972;4.624;2023-02-17T04:07:01;101774.81;;;11.46;100.00
62508;BME280;48556;51.972;4.624;2023-02-17T04:09:26;101772.22;;;11.40;100.00
62508;BME280;48556;51.972;4.624;2023-02-17T04:11:52;101773.09;;;11.21;100.00
62508;BME280;48556;51.972;4.624;2023-02-17T04:14:17;101791.50;;;11.15;100.00
62508;BME280;48556;51.972;4.624;2023-02-17T04:16:43;101777.47;;;11.22;100.00
62508;BME280;48556;51.972;4.624;2023-02-17T04:19:08;101790.63;;;11.29;100.00
62508;BME280;48556;51.972;4.624;2023-02-17T04:21:34;101796.75;;;11.69;100.00
62508;BME280;48556;51.972;4.624;2023-02-17T04:24:02;101777.47;;;11.54;100.00
62508;BME280;48556;51.972;4.624;2023-02-17T04:26:28;101772.22;;;11.42;100.00
62508;BME280;48556;51.972;4.624;2023-02-17T04:28:54;101772.19;;;11.57;100.00
62508;BME280;48556;51.972;4.624;2023-02-17T04:31:20;101773.97;;;11.37;100.00
62508;BME280;48556;51.972;4.624;2023-02-17T04:33:46;101774.84;;;11.37;100.00
62508;BME280;48556;51.972;4.624;2023-02-17T04:36:12;101777.50;;;11.37;100.00
62508;BME280;48556;51.972;4.624;2023-02-17T04:38:57;101767.81;;;11.11;100.00
62508;BME280;48556;51.972;4.624;2023-02-17T04:41:23;101755.53;;;11.29;100.00
62508;BME280;48556;51.972;4.624;2023-02-17T04:43:48;101769.56;;;11.19;100.00
62508;BME280;48556;51.972;4.624;2023-02-17T04:46:14;101755.53;;;11.29;100.00
62508;BME280;48556;51.972;4.624;2023-02-17T04:48:39;101745.88;;;11.37;100.00
62508;BME280;48556;51.972;4.624;2023-02-17T04:51:05;101750.25;;;11.26;100.00
62508;BME280;48556;51.972;4.624;2023-02-17T04:53:30;101751.13;;;11.22;100.00
62508;BME280;48556;51.972;4.624;2023-02-17T04:55:56;101773.97;;;11.46;100.00
62508;BME280;48556;51.972;4.624;2023-02-17T04:58:22;101770.41;;;11.59;100.00
62508;BME280;48556;51.972;4.624;2023-02-17T05:00:48;101775.72;;;11.53;100.00
62508;BME280;48556;51.972;4.624;2023-02-17T05:03:15;101791.53;;;11.32;100.00
62508;BME280;48556;51.972;4.624;2023-02-17T05:05:40;101788.88;;;11.49;100.00
62508;BME280;48556;51.972;4.624;2023-02-17T05:08:06;101783.59;;;11.10;100.00
62508;BME280;48556;51.972;4.624;2023-02-17T05:10:32;101779.25;;;11.41;100.00
62508;BME280;48556;51.972;4.624;2023-02-17T05:12:58;101773.94;;;11.61;100.00
62508;BME280;48556;51.972;4.624;2023-02-17T05:15:23;101777.44;;;11.50;100.00
62508;BME280;48556;51.972;4.624;2023-02-17T05:17:49;101785.38;;;11.56;100.00
62508;BME280;48556;51.972;4.624;2023-02-17T05:20:14;101781.00;;;11.36;100.00
62508;BME280;48556;51.972;4.624;2023-02-17T05:22:40;101766.03;;;11.10;100.00
62508;BME280;48556;51.972;4.624;2023-02-17T05:25:06;101776.59;;;11.23;100.00
62508;BME280;48556;51.972;4.624;2023-02-17T05:27:36;101772.22;;;11.29;100.00
62508;BME280;48556;51.972;4.624;2023-02-17T05:30:02;101769.59;;;11.25;100.00
62508;BME280;48556;51.972;4.624;2023-02-17T05:32:28;101758.16;;;11.04;100.00
62508;BME280;48556;51.972;4.624;2023-02-17T05:34:53;101747.66;;;11.29;100.00
62508;BME280;48556;51.972;4.624;2023-02-17T05:37:19;101753.78;;;11.19;100.00
62508;BME280;48556;51.972;4.624;2023-02-17T05:39:45;101745.00;;;11.14;100.00
62508;BME280;48556;51.972;4.624;2023-02-17T05:42:10;101744.13;;;11.32;100.00
62508;BME280;48556;51.972;4.624;2023-02-17T05:44:36;101735.34;;;11.29;100.00
62508;BME280;48556;51.972;4.624;2023-02-17T05:47:01;101729.22;;;11.14;100.00
62508;BME280;48556;51.972;4.624;2023-02-17T05:49:27;101737.09;;;11.37;100.00
62508;BME280;48556;51.972;4.624;2023-02-17T05:51:53;101730.97;;;11.36;100.00
62508;BME280;48556;51.972;4.624;2023-02-17T05:54:18;101721.28;;;11.38;100.00
62508;BME280;48556;51.972;4.624;2023-02-17T05:56:44;101729.16;;;11.54;100.00
62508;BME280;48556;51.972;4.624;2023-02-17T05:59:10;101720.41;;;11.50;100.00
62508;BME280;48556;51.972;4.624;2023-02-17T06:01:36;101718.66;;;11.38;100.00
62508;BME280;48556;51.972;4.624;2023-02-17T06:04:02;101723.94;;;11.24;100.00
62508;BME280;48556;51.972;4.624;2023-02-17T06:06:28;101721.31;;;11.43;100.00
62508;BME280;48556;51.972;4.624;2023-02-17T06:08:53;101724.81;;;11.40;100.00
62508;BME280;48556;51.972;4.624;2023-02-17T06:11:20;101728.28;;;11.55;100.00
62508;BME280;48556;51.972;4.624;2023-02-17T06:13:46;101716.03;;;11.41;100.00
62508;BME280;48556;51.972;4.624;2023-02-17T06:16:11;101730.91;;;11.58;100.00
62508;BME280;48556;51.972;4.624;2023-02-17T06:18:37;101709.91;;;11.36;100.00
62508;BME280;48556;51.972;4.624;2023-02-17T06:21:03;101710.78;;;11.43;100.00
62508;BME280;48556;51.972;4.624;2023-02-17T06:23:28;101720.41;;;11.62;100.00
62508;BME280;48556;51.972;4.624;2023-02-17T06:25:54;101724.81;;;11.42;100.00
62508;BME280;48556;51.972;4.624;2023-02-17T06:28:20;101729.22;;;11.29;100.00
62508;BME280;48556;51.972;4.624;2023-02-17T06:30:45;101725.69;;;11.49;100.00
62508;BME280;48556;51.972;4.624;2023-02-17T06:33:11;101727.44;;;11.46;100.00
62508;BME280;48556;51.972;4.624;2023-02-17T06:35:37;101713.38;;;11.49;100.00
62508;BME280;48556;51.972;4.624;2023-02-17T06:38:03;101708.13;;;11.38;100.00
62508;BME280;48556;51.972;4.624;2023-02-17T06:40:29;101706.41;;;11.37;100.00
62508;BME280;48556;51.972;4.624;2023-02-17T06:42:54;101710.75;;;11.46;100.00
62508;BME280;48556;51.972;4.624;2023-02-17T06:45:20;101711.63;;;11.53;100.00
62508;BME280;48556;51.972;4.624;2023-02-17T06:47:45;101699.31;;;11.67;100.00
62508;BME280;48556;51.972;4.624;2023-02-17T06:50:11;101694.03;;;11.58;100.00
62508;BME280;48556;51.972;4.624;2023-02-17T06:52:38;101701.09;;;11.50;100.00
62508;BME280;48556;51.972;4.624;2023-02-17T06:55:04;101694.84;;;11.82;100.00
62508;BME280;48556;51.972;4.624;2023-02-17T06:57:30;101718.59;;;11.66;100.00
62508;BME280;48556;51.972;4.624;2023-02-17T06:59:55;101695.81;;;11.50;100.00
62508;BME280;48556;51.972;4.624;2023-02-17T07:02:21;101701.88;;;11.81;100.00
62508;BME280;48556;51.972;4.624;2023-02-17T07:04:46;101695.78;;;11.63;100.00
62508;BME280;48556;51.972;4.624;2023-02-17T07:07:12;101700.16;;;11.72;100.00
62508;BME280;48556;51.972;4.624;2023-02-17T07:09:38;101691.41;;;11.55;100.00
62508;BME280;48556;51.972;4.624;2023-02-17T07:12:04;101695.78;;;11.73;100.00
62508;BME280;48556;51.972;4.624;2023-02-17T07:14:33;101698.38;;;11.84;100.00
62508;BME280;48556;51.972;4.624;2023-02-17T07:16:58;101704.50;;;11.92;100.00
62508;BME280;48556;51.972;4.624;2023-02-17T07:19:25;101715.97;;;11.75;100.00
62508;BME280;48556;51.972;4.624;2023-02-17T07:21:52;101714.22;;;11.70;100.00
62508;BME280;48556;51.972;4.624;2023-02-17T07:24:18;101717.66;;;12.06;100.00
62508;BME280;48556;51.972;4.624;2023-02-17T07:26:43;101722.09;;;11.79;100.00
62508;BME280;48556;51.972;4.624;2023-02-17T07:29:09;101721.25;;;11.72;100.00
62508;BME280;48556;51.972;4.624;2023-02-17T07:31:35;101732.63;;;11.77;100.00
62508;BME280;48556;51.972;4.624;2023-02-17T07:34:02;101712.47;;;11.69;100.00
62508;BME280;48556;51.972;4.624;2023-02-17T07:36:28;101695.81;;;11.67;100.00
62508;BME280;48556;51.972;4.624;2023-02-17T07:38:54;101701.97;;;11.41;100.00
62508;BME280;48556;51.972;4.624;2023-02-17T07:41:21;101711.59;;;11.59;100.00
62508;BME280;48556;51.972;4.624;2023-02-17T07:43:53;101724.78;;;11.60;100.00
62508;BME280;48556;51.972;4.624;2023-02-17T07:46:19;101701.06;;;11.62;100.00
62508;BME280;48556;51.972;4.624;2023-02-17T07:48:45;101719.56;;;11.37;100.00
62508;BME280;48556;51.972;4.624;2023-02-17T07:51:13;101713.41;;;11.44;100.00
62508;BME280;48556;51.972;4.624;2023-02-17T07:53:39;101698.47;;;11.31;100.00
62508;BME280;48556;51.972;4.624;2023-02-17T07:56:08;101738.84;;;11.30;100.00
62508;BME280;48556;51.972;4.624;2023-02-17T07:58:36;101737.97;;;11.46;100.00
62508;BME280;48556;51.972;4.624;2023-02-17T08:03:35;101734.47;;;11.35;100.00
62508;BME280;48556;51.972;4.624;2023-02-17T08:06:01;101723.06;;;11.38;100.00
62508;BME280;48556;51.972;4.624;2023-02-17T08:08:27;101737.09;;;11.09;100.00
62508;BME280;48556;51.972;4.624;2023-02-17T08:11:14;101744.09;;;11.42;100.00
62508;BME280;48556;51.972;4.624;2023-02-17T08:13:59;101759.91;;;11.39;100.00
62508;BME280;48556;51.972;4.624;2023-02-17T08:16:24;101773.94;;;11.40;100.00
62508;BME280;48556;51.972;4.624;2023-02-17T08:18:54;101767.78;;;11.58;100.00
62508;BME280;48556;51.972;4.624;2023-02-17T08:21:21;101764.28;;;11.62;100.00
62508;BME280;48556;51.972;4.624;2023-02-17T08:23:47;101767.78;;;11.79;100.00
62508;BME280;48556;51.972;4.624;2023-02-17T08:26:12;101744.13;;;11.39;100.00
62508;BME280;48556;51.972;4.624;2023-02-17T08:28:40;101739.72;;;11.57;100.00
62508;BME280;48556;51.972;4.624;2023-02-17T08:31:27;101760.81;;;11.27;100.00
62508;BME280;48556;51.972;4.624;2023-02-17T08:33:54;101759.06;;;11.39;100.00
62508;BME280;48556;51.972;4.624;2023-02-17T08:36:20;101768.66;;;11.77;100.00
62508;BME280;48556;51.972;4.624;2023-02-17T08:38:50;101773.00;;;11.93;100.00
62508;BME280;48556;51.972;4.624;2023-02-17T08:41:29;101770.38;;;12.03;100.00
62508;BME280;48556;51.972;4.624;2023-02-17T08:43:57;101780.97;;;11.62;100.00
62508;BME280;48556;51.972;4.624;2023-02-17T08:46:23;101768.63;;;11.88;100.00
62508;BME280;48556;51.972;4.624;2023-02-17T08:48:49;101769.34;;;12.36;100.00
62508;BME280;48556;51.972;4.624;2023-02-17T08:51:18;101775.59;;;12.21;100.00
62508;BME280;48556;51.972;4.624;2023-02-17T08:53:58;101773.88;;;12.09;100.00
62508;BME280;48556;51.972;4.624;2023-02-17T08:56:26;101783.50;;;12.17;100.00
62508;BME280;48556;51.972;4.624;2023-02-17T08:58:52;101762.47;;;11.89;100.00
62508;BME280;48556;51.972;4.624;2023-02-17T09:01:18;101779.19;;;11.77;100.00
62508;BME280;48556;51.972;4.624;2023-02-17T09:03:47;101773.09;;;11.61;100.00
62508;BME280;48556;51.972;4.624;2023-02-17T09:06:13;101774.75;;;12.05;100.00
62508;BME280;48556;51.972;4.624;2023-02-17T09:08:40;101762.53;;;11.76;100.00
62508;BME280;48556;51.972;4.624;2023-02-17T09:11:07;101764.31;;;11.37;100.00
62508;BME280;48556;51.972;4.624;2023-02-17T09:13:33;101776.59;;;11.44;100.00
62508;BME280;48556;51.972;4.624;2023-02-17T09:15:59;101779.22;;;11.71;100.00
62508;BME280;48556;51.972;4.624;2023-02-17T09:18:25;101781.81;;;11.80;100.00
62508;BME280;48556;51.972;4.624;2023-02-17T09:20:50;101815.22;;;11.58;100.00
62508;BME280;48556;51.972;4.624;2023-02-17T09:23:17;101811.69;;;11.63;100.00
62508;BME280;48556;51.972;4.624;2023-02-17T09:25:43;101808.19;;;11.85;100.00
62508;BME280;48556;51.972;4.624;2023-02-17T09:28:09;101807.28;;;11.81;100.00
62508;BME280;48556;51.972;4.624;2023-02-17T09:30:36;101797.63;;;11.69;100.00
62508;BME280;48556;51.972;4.624;2023-02-17T09:33:02;101794.16;;;11.61;100.00
62508;BME280;48556;51.972;4.624;2023-02-17T09:35:29;101766.91;;;11.63;100.00
62508;BME280;48556;51.972;4.624;2023-02-17T09:37:56;101780.97;;;11.50;100.00
62508;BME280;48556;51.972;4.624;2023-02-17T09:43:12;101784.47;;;11.74;100.00
62508;BME280;48556;51.972;4.624;2023-02-17T09:45:43;101794.13;;;11.73;100.00
62508;BME280;48556;51.972;4.624;2023-02-17T09:48:16;101803.78;;;11.77;100.00
62508;BME280;48556;51.972;4.624;2023-02-17T09:50:49;101806.41;;;11.74;100.00
62508;BME280;48556;51.972;4.624;2023-02-17T09:53:33;101802.91;;;12.02;100.00
62508;BME280;48556;51.972;4.624;2023-02-17T09:56:07;101803.78;;;11.77;100.00
62508;BME280;48556;51.972;4.624;2023-02-17T09:58:42;101817.81;;;11.89;100.00
62508;BME280;48556;51.972;4.624;2023-02-17T10:01:19;101808.16;;;12.03;100.00
62508;BME280;48556;51.972;4.624;2023-02-17T10:06:35;101814.28;;;12.04;100.00
62508;BME280;48556;51.972;4.624;2023-02-17T10:09:38;101820.44;;;12.20;100.00
62508;BME280;48556;51.972;4.624;2023-02-17T10:12:11;101817.78;;;12.18;100.00
62508;BME280;48556;51.972;4.624;2023-02-17T10:14:50;101826.59;;;11.83;100.00
62508;BME280;48556;51.972;4.624;2023-02-17T10:17:34;101834.50;;;11.91;100.00
62508;BME280;48556;51.972;4.624;2023-02-17T10:20:13;101836.22;;;12.26;100.00
62508;BME280;48556;51.972;4.624;2023-02-17T10:22:45;101848.56;;;12.13;100.00
62508;BME280;48556;51.972;4.624;2023-02-17T10:34:12;101845.91;;;12.24;100.00
62508;BME280;48556;51.972;4.624;2023-02-17T10:39:50;101853.78;;;12.27;100.00
62508;BME280;48556;51.972;4.624;2023-02-17T10:42:36;101843.09;;;12.69;98.53
62508;BME280;48556;51.972;4.624;2023-02-17T10:47:43;101852.09;;;11.98;100.00
62508;BME280;48556;51.972;4.624;2023-02-17T10:50:20;101848.56;;;12.08;100.00
62508;BME280;48556;51.972;4.624;2023-02-17T10:52:49;101859.09;;;12.05;100.00
62508;BME280;48556;51.972;4.624;2023-02-17T10:56:11;101839.78;;;11.82;100.00
62508;BME280;48556;51.972;4.624;2023-02-17T10:58:29;101867.06;;;11.94;100.00
62508;BME280;48556;51.972;4.624;2023-02-17T11:01:03;101871.41;;;12.05;100.00
62508;BME280;48556;51.972;4.624;2023-02-17T11:03:31;101877.59;;;11.94;100.00
62508;BME280;48556;51.972;4.624;2023-02-17T11:06:02;101870.50;;;11.86;100.00
62508;BME280;48556;51.972;4.624;2023-02-17T11:08:38;101890.72;;;12.14;100.00
62508;BME280;48556;51.972;4.624;2023-02-17T11:11:18;101857.38;;;11.76;100.00
62508;BME280;48556;51.972;4.624;2023-02-17T11:16:36;101870.53;;;11.64;100.00
62508;BME280;48556;51.972;4.624;2023-02-17T11:19:29;101856.47;;;11.85;100.00
62508;BME280;48556;51.972;4.624;2023-02-17T11:22:05;101861.72;;;11.91;100.00
62508;BME280;48556;51.972;4.624;2023-02-17T11:24:33;101878.41;;;11.58;100.00
62508;BME280;48556;51.972;4.624;2023-02-17T11:27:10;101883.69;;;11.73;100.00
62508;BME280;48556;51.972;4.624;2023-02-17T11:29:36;101866.13;;;11.69;100.00
62508;BME280;48556;51.972;4.624;2023-02-17T11:32:10;101871.41;;;11.60;100.00
62508;BME280;48556;51.972;4.624;2023-02-17T11:34:41;101858.25;;;12.03;100.00
62508;BME280;48556;51.972;4.624;2023-02-17T11:39:43;101885.44;;;11.59;100.00
62508;BME280;48556;51.972;4.624;2023-02-17T11:42:26;101888.09;;;11.60;100.00
62508;BME280;48556;51.972;4.624;2023-02-17T11:45:17;101883.69;;;11.83;100.00
62508;BME280;48556;51.972;4.624;2023-02-17T11:50:52;101897.75;;;12.11;98.66
62508;BME280;48556;51.972;4.624;2023-02-17T12:07:31;101931.09;;;11.56;100.00
62508;BME280;48556;51.972;4.624;2023-02-17T12:15:48;101914.44;;;12.18;97.81
62508;BME280;48556;51.972;4.624;2023-02-17T12:18:48;101924.09;;;12.33;97.19
62508;BME280;48556;51.972;4.624;2023-02-17T12:21:47;101922.34;;;12.27;97.61
62508;BME280;48556;51.972;4.624;2023-02-17T12:24:30;101935.50;;;12.36;95.94
62508;BME280;48556;51.972;4.624;2023-02-17T12:27:23;101938.19;;;12.02;97.64
62508;BME280;48556;51.972;4.624;2023-02-17T12:30:18;101956.66;;;12.01;98.08
62508;BME280;48556;51.972;4.624;2023-02-17T12:35:50;101946.97;;;12.24;96.07
62508;BME280;48556;51.972;4.624;2023-02-17T12:41:36;101946.09;;;12.01;97.30
62508;BME280;48556;51.972;4.624;2023-02-17T12:44:21;101939.91;;;12.43;96.44
62508;BME280;48556;51.972;4.624;2023-02-17T12:46:53;101941.69;;;12.12;97.39
62508;BME280;48556;51.972;4.624;2023-02-17T12:49:31;101953.97;;;12.31;95.88
62508;BME280;48556;51.972;4.624;2023-02-17T12:52:18;101968.06;;;12.13;96.44
62508;BME280;48556;51.972;4.624;2023-02-17T12:55:17;101961.03;;;12.19;96.02
62508;BME280;48556;51.972;4.624;2023-02-17T12:57:52;101956.63;;;12.22;95.56
62508;BME280;48556;51.972;4.624;2023-02-17T13:00:40;101960.97;;;12.56;94.69
62508;BME280;48556;51.972;4.624;2023-02-17T13:03:07;101973.31;;;12.27;94.43
62508;BME280;48556;51.972;4.624;2023-02-17T13:06:18;101975.97;;;12.34;94.47
62508;BME280;48556;51.972;4.624;2023-02-17T13:08:57;101965.41;;;11.93;96.65
62508;BME280;48556;51.972;4.624;2023-02-17T13:11:32;101974.16;;;11.80;97.66
62508;BME280;48556;51.972;4.624;2023-02-17T13:14:27;101962.78;;;12.15;96.39
62508;BME280;48556;51.972;4.624;2023-02-17T13:16:54;101956.66;;;12.14;95.31
62508;BME280;48556;51.972;4.624;2023-02-17T13:19:28;101949.59;;;12.37;94.23
62508;BME280;48556;51.972;4.624;2023-02-17T13:21:56;101976.84;;;12.19;95.18
62508;BME280;48556;51.972;4.624;2023-02-17T13:24:35;101971.56;;;12.25;94.68
62508;BME280;48556;51.972;4.624;2023-02-17T13:27:32;101966.28;;;12.25;94.90
62508;BME280;48556;51.972;4.624;2023-02-17T13:30:06;101981.22;;;12.61;93.34
62508;BME280;48556;51.972;4.624;2023-02-17T13:32:37;101975.09;;;12.39;93.99
62508;BME280;48556;51.972;4.624;2023-02-17T13:35:28;101969.78;;;12.55;93.24
62508;BME280;48556;51.972;4.624;2023-02-17T13:37:56;101990.88;;;12.48;92.91
62508;BME280;48556;51.972;4.624;2023-02-17T13:40:37;101997.94;;;11.99;95.49
62508;BME280;48556;51.972;4.624;2023-02-17T13:43:18;101965.41;;;12.35;95.07
62508;BME280;48556;51.972;4.624;2023-02-17T13:45:51;101952.22;;;12.38;94.51
62508;BME280;48556;51.972;4.624;2023-02-17T13:48:37;101945.13;;;12.63;92.84
62508;BME280;48556;51.972;4.624;2023-02-17T13:51:06;101947.66;;;12.94;92.38
62508;BME280;48556;51.972;4.624;2023-02-17T13:53:37;101973.16;;;13.05;90.76
62508;BME280;48556;51.972;4.624;2023-02-17T13:56:08;101984.66;;;12.83;90.67
62508;BME280;48556;51.972;4.624;2023-02-17T13:58:39;101964.47;;;12.61;91.67
62508;BME280;48556;51.972;4.624;2023-02-17T14:01:12;101939.84;;;12.71;92.60
62508;BME280;48556;51.972;4.624;2023-02-17T14:03:49;101967.97;;;12.71;92.48
62508;BME280;48556;51.972;4.624;2023-02-17T14:06:35;101941.66;;;12.40;94.26
62508;BME280;48556;51.972;4.624;2023-02-17T14:11:53;101964.53;;;12.31;94.78
62508;BME280;48556;51.972;4.624;2023-02-17T14:14:22;101957.47;;;12.44;95.31
62508;BME280;48556;51.972;4.624;2023-02-17T14:17:14;101957.50;;;12.30;95.34
62508;BME280;48556;51.972;4.624;2023-02-17T14:20:04;101972.34;;;12.79;93.15
62508;BME280;48556;51.972;4.624;2023-02-17T14:22:33;101971.34;;;13.11;92.04
62508;BME280;48556;51.972;4.624;2023-02-17T14:25:05;101971.53;;;12.60;92.93
62508;BME280;48556;51.972;4.624;2023-02-17T14:27:46;101959.13;;;12.90;92.40
62508;BME280;48556;51.972;4.624;2023-02-17T14:30:35;101962.72;;;12.66;92.32
62508;BME280;48556;51.972;4.624;2023-02-17T14:33:24;101961.84;;;12.61;92.96